sensor_id;sensor_type;location;lat;lon;timestamp;P1;durP1;ratioP1;P2;durP2;ratioP2
57730;SDS011;43570;47.476;19.040;2023-04-25T00:00:42;2.80;;;2.05;;
57730;SDS011;43570;47.476;19.040;2023-04-25T00:03:08;2.75;;;1.90;;
57730;SDS011;43570;47.476;19.040;2023-04-25T00:05:33;2.60;;;1.98;;
57730;SDS011;43570;47.476;19.040;2023-04-25T00:08:02;2.35;;;1.90;;
57730;SDS011;43570;47.476;19.040;2023-04-25T00:10:28;3.92;;;2.12;;
57730;SDS011;43570;47.476;19.040;2023-04-25T00:12:53;2.87;;;2.15;;
57730;SDS011;43570;47.476;19.040;2023-04-25T00:15:18;2.67;;;1.85;;
57730;SDS011;43570;47.476;19.040;2023-04-25T00:17:44;2.90;;;2.35;;
57730;SDS011;43570;47.476;19.040;2023-04-25T00:20:10;3.50;;;2.50;;
57730;SDS011;43570;47.476;19.040;2023-04-25T00:22:36;3.97;;;2.67;;
57730;SDS011;43570;47.476;19.040;2023-04-25T00:25:05;4.10;;;2.40;;
57730;SDS011;43570;47.476;19.040;2023-04-25T00:27:31;3.60;;;2.60;;
57730;SDS011;43570;47.476;19.040;2023-04-25T00:29:56;3.08;;;2.30;;
57730;SDS011;43570;47.476;19.040;2023-04-25T00:32:22;3.67;;;2.30;;
57730;SDS011;43570;47.476;19.040;2023-04-25T00:34:47;3.20;;;2.50;;
57730;SDS011;43570;47.476;19.040;2023-04-25T00:37:13;2.87;;;2.45;;
57730;SDS011;43570;47.476;19.040;2023-04-25T00:39:38;3.78;;;2.30;;
57730;SDS011;43570;47.476;19.040;2023-04-25T00:42:04;4.85;;;2.87;;
57730;SDS011;43570;47.476;19.040;2023-04-25T00:44:30;4.15;;;3.00;;
57730;SDS011;43570;47.476;19.040;2023-04-25T00:46:57;3.55;;;2.95;;
57730;SDS011;43570;47.476;19.040;2023-04-25T00:49:22;6.22;;;3.10;;
57730;SDS011;43570;47.476;19.040;2023-04-25T00:51:48;4.80;;;3.12;;
57730;SDS011;43570;47.476;19.040;2023-04-25T00:54:13;4.93;;;3.20;;
57730;SDS011;43570;47.476;19.040;2023-04-25T00:56:39;4.93;;;3.42;;
57730;SDS011;43570;47.476;19.040;2023-04-25T00:59:04;3.92;;;2.90;;
57730;SDS011;43570;47.476;19.040;2023-04-25T01:01:30;5.50;;;3.00;;
57730;SDS011;43570;47.476;19.040;2023-04-25T01:03:56;5.87;;;3.58;;
57730;SDS011;43570;47.476;19.040;2023-04-25T01:06:23;6.75;;;3.50;;
57730;SDS011;43570;47.476;19.040;2023-04-25T01:08:49;4.95;;;3.60;;
57730;SDS011;43570;47.476;19.040;2023-04-25T01:11:14;5.97;;;3.20;;
57730;SDS011;43570;47.476;19.040;2023-04-25T01:13:40;5.65;;;3.55;;
57730;SDS011;43570;47.476;19.040;2023-04-25T01:16:05;5.22;;;3.58;;
57730;SDS011;43570;47.476;19.040;2023-04-25T01:18:31;4.25;;;3.45;;
57730;SDS011;43570;47.476;19.040;2023-04-25T01:20:56;5.15;;;3.20;;
57730;SDS011;43570;47.476;19.040;2023-04-25T01:23:28;5.80;;;3.35;;
57730;SDS011;43570;47.476;19.040;2023-04-25T01:25:54;4.78;;;3.20;;
57730;SDS011;43570;47.476;19.040;2023-04-25T01:28:19;5.40;;;3.62;;
57730;SDS011;43570;47.476;19.040;2023-04-25T01:30:45;5.03;;;3.60;;
57730;SDS011;43570;47.476;19.040;2023-04-25T01:33:11;5.75;;;3.95;;
57730;SDS011;43570;47.476;19.040;2023-04-25T01:35:38;5.68;;;3.70;;
57730;SDS011;43570;47.476;19.040;2023-04-25T01:38:05;5.05;;;3.47;;
57730;SDS011;43570;47.476;19.040;2023-04-25T01:40:30;5.00;;;3.75;;
57730;SDS011;43570;47.476;19.040;2023-04-25T01:42:56;5.10;;;3.75;;
57730;SDS011;43570;47.476;19.040;2023-04-25T01:45:22;5.37;;;3.65;;
57730;SDS011;43570;47.476;19.040;2023-04-25T01:47:47;5.22;;;3.70;;
57730;SDS011;43570;47.476;19.040;2023-04-25T01:50:14;4.70;;;3.50;;
57730;SDS011;43570;47.476;19.040;2023-04-25T01:52:40;4.60;;;3.47;;
57730;SDS011;43570;47.476;19.040;2023-04-25T01:55:06;5.47;;;3.87;;
57730;SDS011;43570;47.476;19.040;2023-04-25T01:57:31;4.75;;;3.60;;
57730;SDS011;43570;47.476;19.040;2023-04-25T01:59:59;4.72;;;3.40;;
57730;SDS011;43570;47.476;19.040;2023-04-25T02:02:27;5.25;;;3.80;;
57730;SDS011;43570;47.476;19.040;2023-04-25T02:04:52;6.25;;;4.10;;
57730;SDS011;43570;47.476;19.040;2023-04-25T02:07:19;5.53;;;3.70;;
57730;SDS011;43570;47.476;19.040;2023-04-25T02:09:45;4.85;;;3.85;;
57730;SDS011;43570;47.476;19.040;2023-04-25T02:12:10;5.70;;;3.90;;
57730;SDS011;43570;47.476;19.040;2023-04-25T02:14:36;4.87;;;3.67;;
57730;SDS011;43570;47.476;19.040;2023-04-25T02:17:01;4.72;;;3.75;;
57730;SDS011;43570;47.476;19.040;2023-04-25T02:19:27;5.07;;;3.78;;
57730;SDS011;43570;47.476;19.040;2023-04-25T02:21:52;5.68;;;3.58;;
57730;SDS011;43570;47.476;19.040;2023-04-25T02:24:18;4.90;;;3.50;;
57730;SDS011;43570;47.476;19.040;2023-04-25T02:26:43;5.15;;;4.03;;
57730;SDS011;43570;47.476;19.040;2023-04-25T02:29:09;4.80;;;3.65;;
57730;SDS011;43570;47.476;19.040;2023-04-25T02:31:35;4.30;;;3.42;;
57730;SDS011;43570;47.476;19.040;2023-04-25T02:34:00;5.12;;;3.85;;
57730;SDS011;43570;47.476;19.040;2023-04-25T02:36:25;4.85;;;3.67;;
57730;SDS011;43570;47.476;19.040;2023-04-25T02:38:51;6.10;;;3.58;;
57730;SDS011;43570;47.476;19.040;2023-04-25T02:41:17;4.87;;;3.72;;
57730;SDS011;43570;47.476;19.040;2023-04-25T02:43:42;5.50;;;3.90;;
57730;SDS011;43570;47.476;19.040;2023-04-25T02:46:08;4.75;;;3.60;;
57730;SDS011;43570;47.476;19.040;2023-04-25T02:48:33;5.20;;;4.10;;
57730;SDS011;43570;47.476;19.040;2023-04-25T02:50:59;5.78;;;3.70;;
57730;SDS011;43570;47.476;19.040;2023-04-25T02:53:24;4.65;;;3.40;;
57730;SDS011;43570;47.476;19.040;2023-04-25T02:55:49;6.87;;;4.15;;
57730;SDS011;43570;47.476;19.040;2023-04-25T02:58:17;5.10;;;3.60;;
57730;SDS011;43570;47.476;19.040;2023-04-25T03:00:42;6.22;;;4.10;;
57730;SDS011;43570;47.476;19.040;2023-04-25T03:03:08;5.80;;;4.00;;
57730;SDS011;43570;47.476;19.040;2023-04-25T03:05:33;5.30;;;3.95;;
57730;SDS011;43570;47.476;19.040;2023-04-25T03:07:58;5.32;;;4.25;;
57730;SDS011;43570;47.476;19.040;2023-04-25T03:10:24;5.65;;;4.35;;
57730;SDS011;43570;47.476;19.040;2023-04-25T03:12:49;5.15;;;3.97;;
57730;SDS011;43570;47.476;19.040;2023-04-25T03:15:15;5.43;;;4.00;;
57730;SDS011;43570;47.476;19.040;2023-04-25T03:17:41;5.03;;;4.15;;
57730;SDS011;43570;47.476;19.040;2023-04-25T03:20:07;6.28;;;4.10;;
57730;SDS011;43570;47.476;19.040;2023-04-25T03:22:33;7.03;;;4.37;;
57730;SDS011;43570;47.476;19.040;2023-04-25T03:24:58;5.18;;;4.00;;
57730;SDS011;43570;47.476;19.040;2023-04-25T03:27:24;5.00;;;4.25;;
57730;SDS011;43570;47.476;19.040;2023-04-25T03:29:49;5.28;;;3.92;;
57730;SDS011;43570;47.476;19.040;2023-04-25T03:32:15;5.75;;;4.03;;
57730;SDS011;43570;47.476;19.040;2023-04-25T03:34:40;5.85;;;4.25;;
57730;SDS011;43570;47.476;19.040;2023-04-25T03:37:06;5.75;;;3.92;;
57730;SDS011;43570;47.476;19.040;2023-04-25T03:39:31;5.78;;;3.83;;
57730;SDS011;43570;47.476;19.040;2023-04-25T03:41:56;6.00;;;4.22;;
57730;SDS011;43570;47.476;19.040;2023-04-25T03:44:22;6.00;;;4.10;;
57730;SDS011;43570;47.476;19.040;2023-04-25T03:46:49;5.35;;;3.70;;
57730;SDS011;43570;47.476;19.040;2023-04-25T03:49:14;5.93;;;3.62;;
57730;SDS011;43570;47.476;19.040;2023-04-25T03:51:39;5.65;;;4.00;;
57730;SDS011;43570;47.476;19.040;2023-04-25T03:54:05;7.93;;;4.22;;
57730;SDS011;43570;47.476;19.040;2023-04-25T03:56:30;5.30;;;3.90;;
57730;SDS011;43570;47.476;19.040;2023-04-25T03:58:56;5.15;;;3.97;;
57730;SDS011;43570;47.476;19.040;2023-04-25T04:01:21;6.82;;;4.35;;
57730;SDS011;43570;47.476;19.040;2023-04-25T04:03:46;4.60;;;3.90;;
57730;SDS011;43570;47.476;19.040;2023-04-25T04:06:12;6.12;;;4.68;;
57730;SDS011;43570;47.476;19.040;2023-04-25T04:08:38;5.97;;;3.87;;
57730;SDS011;43570;47.476;19.040;2023-04-25T04:11:03;6.45;;;4.35;;
57730;SDS011;43570;47.476;19.040;2023-04-25T04:13:29;7.82;;;4.18;;
57730;SDS011;43570;47.476;19.040;2023-04-25T04:15:55;5.32;;;3.97;;
57730;SDS011;43570;47.476;19.040;2023-04-25T04:18:20;5.35;;;3.55;;
57730;SDS011;43570;47.476;19.040;2023-04-25T04:20:46;4.87;;;3.85;;
57730;SDS011;43570;47.476;19.040;2023-04-25T04:23:11;5.15;;;3.55;;
57730;SDS011;43570;47.476;19.040;2023-04-25T04:25:37;4.90;;;3.55;;
57730;SDS011;43570;47.476;19.040;2023-04-25T04:28:03;5.12;;;3.70;;
57730;SDS011;43570;47.476;19.040;2023-04-25T04:30:28;5.65;;;3.90;;
57730;SDS011;43570;47.476;19.040;2023-04-25T04:32:54;6.40;;;4.25;;
57730;SDS011;43570;47.476;19.040;2023-04-25T04:35:21;5.60;;;3.90;;
57730;SDS011;43570;47.476;19.040;2023-04-25T04:37:47;5.97;;;4.00;;
57730;SDS011;43570;47.476;19.040;2023-04-25T04:40:13;6.53;;;4.72;;
57730;SDS011;43570;47.476;19.040;2023-04-25T04:42:40;5.85;;;4.53;;
57730;SDS011;43570;47.476;19.040;2023-04-25T04:47:35;5.10;;;3.65;;
57730;SDS011;43570;47.476;19.040;2023-04-25T04:50:01;4.47;;;3.58;;
57730;SDS011;43570;47.476;19.040;2023-04-25T04:52:28;5.03;;;3.67;;
57730;SDS011;43570;47.476;19.040;2023-04-25T04:54:53;4.72;;;3.47;;
57730;SDS011;43570;47.476;19.040;2023-04-25T04:57:18;4.78;;;3.87;;
57730;SDS011;43570;47.476;19.040;2023-04-25T04:59:44;5.35;;;3.70;;
57730;SDS011;43570;47.476;19.040;2023-04-25T05:02:09;6.85;;;3.83;;
57730;SDS011;43570;47.476;19.040;2023-04-25T05:04:35;4.97;;;3.72;;
57730;SDS011;43570;47.476;19.040;2023-04-25T05:07:00;4.62;;;3.58;;
57730;SDS011;43570;47.476;19.040;2023-04-25T05:09:26;4.80;;;3.55;;
57730;SDS011;43570;47.476;19.040;2023-04-25T05:11:51;5.37;;;3.60;;
57730;SDS011;43570;47.476;19.040;2023-04-25T05:14:17;4.82;;;3.35;;
57730;SDS011;43570;47.476;19.040;2023-04-25T05:16:43;4.85;;;3.62;;
57730;SDS011;43570;47.476;19.040;2023-04-25T05:19:08;4.65;;;3.45;;
57730;SDS011;43570;47.476;19.040;2023-04-25T05:21:34;4.70;;;3.72;;
57730;SDS011;43570;47.476;19.040;2023-04-25T05:23:59;6.28;;;3.72;;
57730;SDS011;43570;47.476;19.040;2023-04-25T05:26:25;5.25;;;3.50;;
57730;SDS011;43570;47.476;19.040;2023-04-25T05:28:50;5.03;;;3.62;;
57730;SDS011;43570;47.476;19.040;2023-04-25T05:31:16;5.18;;;3.53;;
57730;SDS011;43570;47.476;19.040;2023-04-25T05:33:41;5.47;;;3.53;;
57730;SDS011;43570;47.476;19.040;2023-04-25T05:36:07;7.15;;;4.05;;
57730;SDS011;43570;47.476;19.040;2023-04-25T05:38:33;5.45;;;3.95;;
57730;SDS011;43570;47.476;19.040;2023-04-25T05:40:58;6.62;;;4.70;;
57730;SDS011;43570;47.476;19.040;2023-04-25T05:43:23;6.50;;;4.30;;
57730;SDS011;43570;47.476;19.040;2023-04-25T05:45:49;7.57;;;4.62;;
57730;SDS011;43570;47.476;19.040;2023-04-25T05:48:15;5.95;;;4.37;;
57730;SDS011;43570;47.476;19.040;2023-04-25T05:50:40;6.03;;;4.82;;
57730;SDS011;43570;47.476;19.040;2023-04-25T05:53:06;5.85;;;3.95;;
57730;SDS011;43570;47.476;19.040;2023-04-25T05:55:32;6.53;;;4.43;;
57730;SDS011;43570;47.476;19.040;2023-04-25T05:57:58;5.60;;;4.32;;
57730;SDS011;43570;47.476;19.040;2023-04-25T06:00:23;6.35;;;5.22;;
57730;SDS011;43570;47.476;19.040;2023-04-25T06:02:48;6.78;;;5.20;;
57730;SDS011;43570;47.476;19.040;2023-04-25T06:05:14;6.70;;;5.20;;
57730;SDS011;43570;47.476;19.040;2023-04-25T06:07:39;11.52;;;6.22;;
57730;SDS011;43570;47.476;19.040;2023-04-25T06:10:05;5.95;;;5.35;;
57730;SDS011;43570;47.476;19.040;2023-04-25T06:12:34;6.97;;;5.50;;
57730;SDS011;43570;47.476;19.040;2023-04-25T06:15:00;8.05;;;5.72;;
57730;SDS011;43570;47.476;19.040;2023-04-25T06:17:26;8.82;;;6.43;;
57730;SDS011;43570;47.476;19.040;2023-04-25T06:19:51;7.28;;;6.25;;
57730;SDS011;43570;47.476;19.040;2023-04-25T06:22:17;11.18;;;7.10;;
57730;SDS011;43570;47.476;19.040;2023-04-25T06:24:42;7.80;;;6.30;;
57730;SDS011;43570;47.476;19.040;2023-04-25T06:27:07;9.93;;;6.40;;
57730;SDS011;43570;47.476;19.040;2023-04-25T06:29:33;7.10;;;5.95;;
57730;SDS011;43570;47.476;19.040;2023-04-25T06:31:58;8.90;;;6.72;;
57730;SDS011;43570;47.476;19.040;2023-04-25T06:34:24;7.35;;;6.45;;
57730;SDS011;43570;47.476;19.040;2023-04-25T06:36:49;7.68;;;6.85;;
57730;SDS011;43570;47.476;19.040;2023-04-25T06:39:15;8.13;;;7.03;;
57730;SDS011;43570;47.476;19.040;2023-04-25T06:41:41;7.43;;;6.50;;
57730;SDS011;43570;47.476;19.040;2023-04-25T06:44:07;7.80;;;6.85;;
57730;SDS011;43570;47.476;19.040;2023-04-25T06:46:32;7.80;;;6.10;;
57730;SDS011;43570;47.476;19.040;2023-04-25T06:48:58;8.45;;;6.72;;
57730;SDS011;43570;47.476;19.040;2023-04-25T06:51:23;7.35;;;6.62;;
57730;SDS011;43570;47.476;19.040;2023-04-25T06:53:49;7.28;;;6.35;;
57730;SDS011;43570;47.476;19.040;2023-04-25T06:56:15;7.35;;;6.65;;
57730;SDS011;43570;47.476;19.040;2023-04-25T06:58:41;9.13;;;6.18;;
57730;SDS011;43570;47.476;19.040;2023-04-25T07:01:06;9.05;;;7.50;;
57730;SDS011;43570;47.476;19.040;2023-04-25T07:03:31;8.88;;;7.00;;
57730;SDS011;43570;47.476;19.040;2023-04-25T07:05:57;8.95;;;6.87;;
57730;SDS011;43570;47.476;19.040;2023-04-25T07:08:22;7.78;;;6.97;;
57730;SDS011;43570;47.476;19.040;2023-04-25T07:10:48;8.70;;;6.93;;
57730;SDS011;43570;47.476;19.040;2023-04-25T07:13:13;7.22;;;6.18;;
57730;SDS011;43570;47.476;19.040;2023-04-25T07:15:38;7.87;;;6.37;;
57730;SDS011;43570;47.476;19.040;2023-04-25T07:18:04;9.65;;;6.28;;
57730;SDS011;43570;47.476;19.040;2023-04-25T07:20:29;7.93;;;6.97;;
57730;SDS011;43570;47.476;19.040;2023-04-25T07:22:56;7.53;;;5.65;;
57730;SDS011;43570;47.476;19.040;2023-04-25T07:25:22;7.85;;;5.80;;
57730;SDS011;43570;47.476;19.040;2023-04-25T07:27:47;7.53;;;6.53;;
57730;SDS011;43570;47.476;19.040;2023-04-25T07:30:13;7.28;;;5.93;;
57730;SDS011;43570;47.476;19.040;2023-04-25T07:32:38;6.97;;;5.80;;
57730;SDS011;43570;47.476;19.040;2023-04-25T07:35:04;6.07;;;5.32;;
57730;SDS011;43570;47.476;19.040;2023-04-25T07:37:31;5.90;;;5.28;;
57730;SDS011;43570;47.476;19.040;2023-04-25T07:39:57;6.55;;;5.68;;
57730;SDS011;43570;47.476;19.040;2023-04-25T07:42:23;6.57;;;5.47;;
57730;SDS011;43570;47.476;19.040;2023-04-25T07:44:48;6.35;;;5.30;;
57730;SDS011;43570;47.476;19.040;2023-04-25T07:47:16;6.10;;;5.18;;
57730;SDS011;43570;47.476;19.040;2023-04-25T07:49:43;7.68;;;5.65;;
57730;SDS011;43570;47.476;19.040;2023-04-25T07:52:10;6.25;;;4.60;;
57730;SDS011;43570;47.476;19.040;2023-04-25T07:54:35;5.85;;;4.20;;
57730;SDS011;43570;47.476;19.040;2023-04-25T07:57:01;6.03;;;4.40;;
57730;SDS011;43570;47.476;19.040;2023-04-25T07:59:27;5.70;;;4.70;;
57730;SDS011;43570;47.476;19.040;2023-04-25T08:01:53;5.57;;;4.60;;
57730;SDS011;43570;47.476;19.040;2023-04-25T08:04:18;5.53;;;4.93;;
57730;SDS011;43570;47.476;19.040;2023-04-25T08:06:44;5.55;;;4.25;;
57730;SDS011;43570;47.476;19.040;2023-04-25T08:09:10;8.88;;;5.60;;
57730;SDS011;43570;47.476;19.040;2023-04-25T08:11:36;5.62;;;4.80;;
57730;SDS011;43570;47.476;19.040;2023-04-25T08:14:02;7.15;;;4.90;;
57730;SDS011;43570;47.476;19.040;2023-04-25T08:16:27;6.53;;;4.95;;
57730;SDS011;43570;47.476;19.040;2023-04-25T08:18:53;5.25;;;4.07;;
57730;SDS011;43570;47.476;19.040;2023-04-25T08:21:18;4.97;;;4.15;;
57730;SDS011;43570;47.476;19.040;2023-04-25T08:23:44;5.80;;;3.92;;
57730;SDS011;43570;47.476;19.040;2023-04-25T08:26:10;4.90;;;3.80;;
57730;SDS011;43570;47.476;19.040;2023-04-25T08:28:35;6.25;;;4.03;;
57730;SDS011;43570;47.476;19.040;2023-04-25T08:31:01;4.75;;;3.85;;
57730;SDS011;43570;47.476;19.040;2023-04-25T08:33:26;8.18;;;4.53;;
57730;SDS011;43570;47.476;19.040;2023-04-25T08:35:52;4.72;;;3.67;;
57730;SDS011;43570;47.476;19.040;2023-04-25T08:38:17;4.80;;;3.78;;
57730;SDS011;43570;47.476;19.040;2023-04-25T08:40:43;7.22;;;4.75;;
57730;SDS011;43570;47.476;19.040;2023-04-25T08:43:09;6.05;;;4.47;;
57730;SDS011;43570;47.476;19.040;2023-04-25T08:45:38;5.90;;;4.07;;
57730;SDS011;43570;47.476;19.040;2023-04-25T08:48:15;7.85;;;4.00;;
57730;SDS011;43570;47.476;19.040;2023-04-25T08:50:46;4.97;;;3.80;;
57730;SDS011;43570;47.476;19.040;2023-04-25T08:53:15;6.35;;;4.28;;
57730;SDS011;43570;47.476;19.040;2023-04-25T08:55:43;6.93;;;4.28;;
57730;SDS011;43570;47.476;19.040;2023-04-25T08:58:11;4.93;;;3.90;;
57730;SDS011;43570;47.476;19.040;2023-04-25T09:00:36;5.97;;;4.07;;
57730;SDS011;43570;47.476;19.040;2023-04-25T09:03:02;8.93;;;4.37;;
57730;SDS011;43570;47.476;19.040;2023-04-25T09:05:28;6.05;;;3.95;;
57730;SDS011;43570;47.476;19.040;2023-04-25T09:07:54;5.50;;;4.03;;
57730;SDS011;43570;47.476;19.040;2023-04-25T09:10:21;5.40;;;3.90;;
57730;SDS011;43570;47.476;19.040;2023-04-25T09:13:03;7.72;;;4.68;;
57730;SDS011;43570;47.476;19.040;2023-04-25T09:15:49;5.40;;;4.45;;
57730;SDS011;43570;47.476;19.040;2023-04-25T09:18:32;9.27;;;4.93;;
57730;SDS011;43570;47.476;19.040;2023-04-25T09:21:08;7.32;;;4.45;;
57730;SDS011;43570;47.476;19.040;2023-04-25T09:23:45;5.37;;;3.95;;
57730;SDS011;43570;47.476;19.040;2023-04-25T09:26:17;6.45;;;3.87;;
57730;SDS011;43570;47.476;19.040;2023-04-25T09:28:44;7.43;;;4.45;;
57730;SDS011;43570;47.476;19.040;2023-04-25T09:31:10;6.35;;;5.30;;
57730;SDS011;43570;47.476;19.040;2023-04-25T09:33:36;4.85;;;3.62;;
57730;SDS011;43570;47.476;19.040;2023-04-25T09:36:07;4.60;;;3.40;;
57730;SDS011;43570;47.476;19.040;2023-04-25T09:38:40;5.25;;;3.70;;
57730;SDS011;43570;47.476;19.040;2023-04-25T09:41:07;6.07;;;4.00;;
57730;SDS011;43570;47.476;19.040;2023-04-25T09:43:34;5.60;;;3.42;;
57730;SDS011;43570;47.476;19.040;2023-04-25T09:46:00;4.43;;;3.40;;
57730;SDS011;43570;47.476;19.040;2023-04-25T09:48:26;4.45;;;3.10;;
57730;SDS011;43570;47.476;19.040;2023-04-25T09:53:34;5.87;;;3.42;;
57730;SDS011;43570;47.476;19.040;2023-04-25T09:58:30;5.20;;;3.55;;
57730;SDS011;43570;47.476;19.040;2023-04-25T10:01:01;3.15;;;2.60;;
57730;SDS011;43570;47.476;19.040;2023-04-25T10:03:31;6.78;;;3.45;;
57730;SDS011;43570;47.476;19.040;2023-04-25T10:06:01;5.00;;;2.65;;
57730;SDS011;43570;47.476;19.040;2023-04-25T10:08:33;3.87;;;2.75;;
57730;SDS011;43570;47.476;19.040;2023-04-25T10:11:01;3.45;;;2.78;;
57730;SDS011;43570;47.476;19.040;2023-04-25T10:13:31;2.97;;;2.58;;
57730;SDS011;43570;47.476;19.040;2023-04-25T10:15:57;4.28;;;3.08;;
57730;SDS011;43570;47.476;19.040;2023-04-25T10:18:24;4.30;;;3.08;;
57730;SDS011;43570;47.476;19.040;2023-04-25T10:20:50;5.25;;;2.75;;
57730;SDS011;43570;47.476;19.040;2023-04-25T10:23:16;3.72;;;2.85;;
57730;SDS011;43570;47.476;19.040;2023-04-25T10:25:42;6.97;;;3.03;;
57730;SDS011;43570;47.476;19.040;2023-04-25T10:28:07;4.93;;;2.58;;
57730;SDS011;43570;47.476;19.040;2023-04-25T10:30:33;5.28;;;2.37;;
57730;SDS011;43570;47.476;19.040;2023-04-25T10:32:59;2.87;;;2.17;;
57730;SDS011;43570;47.476;19.040;2023-04-25T10:35:29;4.45;;;2.30;;
57730;SDS011;43570;47.476;19.040;2023-04-25T10:40:34;3.47;;;2.03;;
57730;SDS011;43570;47.476;19.040;2023-04-25T10:43:43;2.37;;;1.70;;
57730;SDS011;43570;47.476;19.040;2023-04-25T10:46:02;4.03;;;1.80;;
57730;SDS011;43570;47.476;19.040;2023-04-25T10:48:38;1.80;;;1.40;;
57730;SDS011;43570;47.476;19.040;2023-04-25T10:51:10;2.20;;;1.60;;
57730;SDS011;43570;47.476;19.040;2023-04-25T10:53:37;1.50;;;1.30;;
57730;SDS011;43570;47.476;19.040;2023-04-25T10:56:36;4.40;;;2.80;;
57730;SDS011;43570;47.476;19.040;2023-04-25T10:59:05;5.10;;;1.62;;
57730;SDS011;43570;47.476;19.040;2023-04-25T11:01:35;2.62;;;1.50;;
57730;SDS011;43570;47.476;19.040;2023-04-25T11:04:21;3.15;;;1.67;;
57730;SDS011;43570;47.476;19.040;2023-04-25T11:09:49;2.05;;;1.23;;
57730;SDS011;43570;47.476;19.040;2023-04-25T11:12:15;2.30;;;1.40;;
57730;SDS011;43570;47.476;19.040;2023-04-25T11:14:41;1.73;;;1.23;;
57730;SDS011;43570;47.476;19.040;2023-04-25T11:17:06;1.70;;;0.95;;
57730;SDS011;43570;47.476;19.040;2023-04-25T11:19:32;1.77;;;1.10;;
57730;SDS011;43570;47.476;19.040;2023-04-25T11:21:58;1.40;;;1.05;;
57730;SDS011;43570;47.476;19.040;2023-04-25T11:24:31;2.58;;;1.10;;
57730;SDS011;43570;47.476;19.040;2023-04-25T11:27:00;1.83;;;0.88;;
57730;SDS011;43570;47.476;19.040;2023-04-25T11:29:30;1.27;;;1.00;;
57730;SDS011;43570;47.476;19.040;2023-04-25T11:31:56;4.43;;;2.17;;
57730;SDS011;43570;47.476;19.040;2023-04-25T11:34:23;3.22;;;1.08;;
57730;SDS011;43570;47.476;19.040;2023-04-25T11:36:49;2.20;;;1.05;;
57730;SDS011;43570;47.476;19.040;2023-04-25T11:39:15;1.45;;;1.00;;
57730;SDS011;43570;47.476;19.040;2023-04-25T11:41:41;1.25;;;0.88;;
57730;SDS011;43570;47.476;19.040;2023-04-25T11:44:07;1.10;;;0.98;;
57730;SDS011;43570;47.476;19.040;2023-04-25T11:46:35;1.60;;;0.98;;
57730;SDS011;43570;47.476;19.040;2023-04-25T11:49:01;15.65;;;2.10;;
57730;SDS011;43570;47.476;19.040;2023-04-25T11:51:27;6.25;;;1.70;;
57730;SDS011;43570;47.476;19.040;2023-04-25T11:53:54;2.42;;;1.10;;
57730;SDS011;43570;47.476;19.040;2023-04-25T11:56:19;2.62;;;1.10;;
57730;SDS011;43570;47.476;19.040;2023-04-25T11:58:55;1.75;;;1.20;;
57730;SDS011;43570;47.476;19.040;2023-04-25T12:01:40;2.70;;;1.20;;
57730;SDS011;43570;47.476;19.040;2023-04-25T12:04:13;3.40;;;1.35;;
57730;SDS011;43570;47.476;19.040;2023-04-25T12:06:40;2.22;;;1.27;;
57730;SDS011;43570;47.476;19.040;2023-04-25T12:09:10;3.22;;;1.60;;
57730;SDS011;43570;47.476;19.040;2023-04-25T12:14:11;2.45;;;1.20;;
57730;SDS011;43570;47.476;19.040;2023-04-25T12:16:43;1.27;;;1.17;;
57730;SDS011;43570;47.476;19.040;2023-04-25T12:19:13;1.52;;;1.10;;
57730;SDS011;43570;47.476;19.040;2023-04-25T12:21:39;2.42;;;1.08;;
57730;SDS011;43570;47.476;19.040;2023-04-25T12:24:14;2.80;;;1.77;;
57730;SDS011;43570;47.476;19.040;2023-04-25T12:26:49;2.87;;;1.27;;
57730;SDS011;43570;47.476;19.040;2023-04-25T12:29:25;1.10;;;1.00;;
57730;SDS011;43570;47.476;19.040;2023-04-25T12:31:52;1.40;;;0.95;;
57730;SDS011;43570;47.476;19.040;2023-04-25T12:34:18;1.52;;;1.23;;
57730;SDS011;43570;47.476;19.040;2023-04-25T12:36:44;1.27;;;1.17;;
57730;SDS011;43570;47.476;19.040;2023-04-25T12:39:14;1.50;;;1.40;;
57730;SDS011;43570;47.476;19.040;2023-04-25T12:41:44;2.05;;;1.40;;
57730;SDS011;43570;47.476;19.040;2023-04-25T12:44:10;2.45;;;1.30;;
57730;SDS011;43570;47.476;19.040;2023-04-25T12:46:36;2.33;;;1.48;;
57730;SDS011;43570;47.476;19.040;2023-04-25T12:49:02;4.80;;;1.37;;
57730;SDS011;43570;47.476;19.040;2023-04-25T12:51:28;1.23;;;1.10;;
57730;SDS011;43570;47.476;19.040;2023-04-25T12:53:54;3.97;;;1.30;;
57730;SDS011;43570;47.476;19.040;2023-04-25T12:56:20;1.98;;;1.12;;
57730;SDS011;43570;47.476;19.040;2023-04-25T12:58:46;2.17;;;1.62;;
57730;SDS011;43570;47.476;19.040;2023-04-25T13:01:13;2.55;;;1.60;;
57730;SDS011;43570;47.476;19.040;2023-04-25T13:03:39;1.60;;;1.37;;
57730;SDS011;43570;47.476;19.040;2023-04-25T13:06:05;4.25;;;1.70;;
57730;SDS011;43570;47.476;19.040;2023-04-25T13:08:31;4.70;;;3.42;;
57730;SDS011;43570;47.476;19.040;2023-04-25T13:10:57;2.83;;;1.45;;
57730;SDS011;43570;47.476;19.040;2023-04-25T13:13:22;3.53;;;1.80;;
57730;SDS011;43570;47.476;19.040;2023-04-25T13:15:48;4.30;;;1.48;;
57730;SDS011;43570;47.476;19.040;2023-04-25T13:18:13;3.72;;;1.52;;
57730;SDS011;43570;47.476;19.040;2023-04-25T13:20:39;3.25;;;1.52;;
57730;SDS011;43570;47.476;19.040;2023-04-25T13:23:05;1.92;;;1.25;;
57730;SDS011;43570;47.476;19.040;2023-04-25T13:25:30;2.97;;;1.45;;
57730;SDS011;43570;47.476;19.040;2023-04-25T13:27:56;2.60;;;1.67;;
57730;SDS011;43570;47.476;19.040;2023-04-25T13:30:21;1.62;;;1.35;;
57730;SDS011;43570;47.476;19.040;2023-04-25T13:32:47;3.15;;;1.92;;
57730;SDS011;43570;47.476;19.040;2023-04-25T13:35:12;2.90;;;1.50;;
57730;SDS011;43570;47.476;19.040;2023-04-25T13:37:39;3.00;;;1.62;;
57730;SDS011;43570;47.476;19.040;2023-04-25T13:40:05;1.98;;;1.60;;
57730;SDS011;43570;47.476;19.040;2023-04-25T13:42:34;2.17;;;1.33;;
57730;SDS011;43570;47.476;19.040;2023-04-25T13:44:59;3.00;;;1.50;;
57730;SDS011;43570;47.476;19.040;2023-04-25T13:47:25;4.00;;;1.62;;
57730;SDS011;43570;47.476;19.040;2023-04-25T13:49:51;3.60;;;1.70;;
57730;SDS011;43570;47.476;19.040;2023-04-25T13:52:16;2.55;;;1.58;;
57730;SDS011;43570;47.476;19.040;2023-04-25T13:54:42;2.42;;;1.70;;
57730;SDS011;43570;47.476;19.040;2023-04-25T13:57:07;2.12;;;1.60;;
57730;SDS011;43570;47.476;19.040;2023-04-25T13:59:33;2.90;;;1.70;;
57730;SDS011;43570;47.476;19.040;2023-04-25T14:01:58;3.08;;;2.17;;
57730;SDS011;43570;47.476;19.040;2023-04-25T14:04:24;3.33;;;1.40;;
57730;SDS011;43570;47.476;19.040;2023-04-25T14:06:50;2.45;;;1.40;;
57730;SDS011;43570;47.476;19.040;2023-04-25T14:09:16;2.75;;;1.40;;
57730;SDS011;43570;47.476;19.040;2023-04-25T14:11:41;2.20;;;1.50;;
57730;SDS011;43570;47.476;19.040;2023-04-25T14:14:07;1.62;;;1.52;;
57730;SDS011;43570;47.476;19.040;2023-04-25T14:16:33;3.05;;;1.58;;
57730;SDS011;43570;47.476;19.040;2023-04-25T14:18:58;2.58;;;1.85;;
57730;SDS011;43570;47.476;19.040;2023-04-25T14:21:24;3.05;;;1.50;;
57730;SDS011;43570;47.476;19.040;2023-04-25T14:23:50;2.67;;;1.90;;
57730;SDS011;43570;47.476;19.040;2023-04-25T14:26:15;3.50;;;1.80;;
57730;SDS011;43570;47.476;19.040;2023-04-25T14:28:41;3.33;;;2.03;;
57730;SDS011;43570;47.476;19.040;2023-04-25T14:31:07;2.58;;;1.30;;
57730;SDS011;43570;47.476;19.040;2023-04-25T14:33:32;4.10;;;1.90;;
57730;SDS011;43570;47.476;19.040;2023-04-25T14:35:57;3.33;;;1.40;;
57730;SDS011;43570;47.476;19.040;2023-04-25T14:38:23;2.55;;;1.80;;
57730;SDS011;43570;47.476;19.040;2023-04-25T14:40:50;4.68;;;2.70;;
57730;SDS011;43570;47.476;19.040;2023-04-25T14:43:16;3.00;;;1.60;;
57730;SDS011;43570;47.476;19.040;2023-04-25T14:45:41;3.05;;;2.15;;